sensor_id;sensor_type;location;lat;lon;timestamp;P1;durP1;ratioP1;P2;durP2;ratioP2
8958;SDS011;4514;49.476;8.484;2023-05-10T00:00:59;1.17;;;1.17;;
8958;SDS011;4514;49.476;8.484;2023-05-10T00:03:27;1.50;;;1.40;;
8958;SDS011;4514;49.476;8.484;2023-05-10T00:05:52;1.60;;;1.50;;
8958;SDS011;4514;49.476;8.484;2023-05-10T00:08:19;2.35;;;1.30;;
8958;SDS011;4514;49.476;8.484;2023-05-10T00:10:45;1.50;;;1.40;;
8958;SDS011;4514;49.476;8.484;2023-05-10T00:13:10;1.40;;;1.30;;
8958;SDS011;4514;49.476;8.484;2023-05-10T00:15:36;1.45;;;1.35;;
8958;SDS011;4514;49.476;8.484;2023-05-10T00:18:03;1.73;;;1.40;;
8958;SDS011;4514;49.476;8.484;2023-05-10T00:20:29;1.38;;;1.35;;
8958;SDS011;4514;49.476;8.484;2023-05-10T00:22:54;2.92;;;1.58;;
8958;SDS011;4514;49.476;8.484;2023-05-10T00:25:24;2.25;;;1.40;;
8958;SDS011;4514;49.476;8.484;2023-05-10T00:27:50;1.65;;;1.20;;
8958;SDS011;4514;49.476;8.484;2023-05-10T00:30:15;2.05;;;1.40;;
8958;SDS011;4514;49.476;8.484;2023-05-10T00:32:41;3.42;;;1.60;;
8958;SDS011;4514;49.476;8.484;2023-05-10T00:35:08;1.70;;;1.60;;
8958;SDS011;4514;49.476;8.484;2023-05-10T00:37:34;1.80;;;1.70;;
8958;SDS011;4514;49.476;8.484;2023-05-10T00:40:02;1.55;;;1.45;;
8958;SDS011;4514;49.476;8.484;2023-05-10T00:42:29;5.07;;;1.70;;
8958;SDS011;4514;49.476;8.484;2023-05-10T00:44:55;1.87;;;1.53;;
8958;SDS011;4514;49.476;8.484;2023-05-10T00:47:23;2.92;;;1.88;;
8958;SDS011;4514;49.476;8.484;2023-05-10T00:49:51;2.15;;;1.92;;
8958;SDS011;4514;49.476;8.484;2023-05-10T00:52:16;3.63;;;1.70;;
8958;SDS011;4514;49.476;8.484;2023-05-10T00:54:47;2.97;;;2.03;;
8958;SDS011;4514;49.476;8.484;2023-05-10T00:57:13;3.22;;;2.20;;
8958;SDS011;4514;49.476;8.484;2023-05-10T00:59:40;2.08;;;1.90;;
8958;SDS011;4514;49.476;8.484;2023-05-10T01:02:06;3.28;;;1.85;;
8958;SDS011;4514;49.476;8.484;2023-05-10T01:04:31;2.00;;;1.90;;
8958;SDS011;4514;49.476;8.484;2023-05-10T01:06:57;1.70;;;1.60;;
8958;SDS011;4514;49.476;8.484;2023-05-10T01:12:50;1.70;;;1.60;;
8958;SDS011;4514;49.476;8.484;2023-05-10T01:15:16;2.10;;;1.95;;
8958;SDS011;4514;49.476;8.484;2023-05-10T01:17:44;2.30;;;2.10;;
8958;SDS011;4514;49.476;8.484;2023-05-10T01:20:14;5.28;;;2.30;;
8958;SDS011;4514;49.476;8.484;2023-05-10T01:33:56;3.40;;;1.50;;
8958;SDS011;4514;49.476;8.484;2023-05-10T01:36:35;1.67;;;1.45;;
8958;SDS011;4514;49.476;8.484;2023-05-10T01:41:45;4.38;;;1.85;;
8958;SDS011;4514;49.476;8.484;2023-05-10T01:44:20;1.70;;;1.60;;
8958;SDS011;4514;49.476;8.484;2023-05-10T01:47:14;2.13;;;1.60;;
8958;SDS011;4514;49.476;8.484;2023-05-10T01:49:45;4.28;;;1.50;;
8958;SDS011;4514;49.476;8.484;2023-05-10T01:52:15;2.65;;;1.70;;
8958;SDS011;4514;49.476;8.484;2023-05-10T01:55:18;1.83;;;1.70;;
8958;SDS011;4514;49.476;8.484;2023-05-10T01:57:43;2.08;;;1.90;;
8958;SDS011;4514;49.476;8.484;2023-05-10T02:00:09;2.78;;;1.77;;
8958;SDS011;4514;49.476;8.484;2023-05-10T02:02:38;3.33;;;1.33;;
8958;SDS011;4514;49.476;8.484;2023-05-10T02:05:07;2.60;;;1.60;;
8958;SDS011;4514;49.476;8.484;2023-05-10T02:07:36;1.60;;;1.42;;
8958;SDS011;4514;49.476;8.484;2023-05-10T02:10:02;1.80;;;1.10;;
8958;SDS011;4514;49.476;8.484;2023-05-10T02:12:29;1.98;;;1.33;;
8958;SDS011;4514;49.476;8.484;2023-05-10T02:14:56;1.20;;;1.20;;
8958;SDS011;4514;49.476;8.484;2023-05-10T02:17:22;1.10;;;1.10;;
8958;SDS011;4514;49.476;8.484;2023-05-10T02:19:48;1.23;;;1.10;;
8958;SDS011;4514;49.476;8.484;2023-05-10T02:22:14;1.55;;;1.13;;
8958;SDS011;4514;49.476;8.484;2023-05-10T02:24:42;2.20;;;1.30;;
8958;SDS011;4514;49.476;8.484;2023-05-10T02:27:08;3.70;;;1.38;;
8958;SDS011;4514;49.476;8.484;2023-05-10T02:29:34;1.70;;;1.58;;
8958;SDS011;4514;49.476;8.484;2023-05-10T02:32:03;2.42;;;1.95;;
8958;SDS011;4514;49.476;8.484;2023-05-10T02:34:28;4.35;;;1.85;;
8958;SDS011;4514;49.476;8.484;2023-05-10T02:36:59;3.22;;;1.80;;
8958;SDS011;4514;49.476;8.484;2023-05-10T02:39:25;1.55;;;1.45;;
8958;SDS011;4514;49.476;8.484;2023-05-10T02:41:55;3.33;;;1.75;;
8958;SDS011;4514;49.476;8.484;2023-05-10T02:44:22;2.58;;;1.45;;
8958;SDS011;4514;49.476;8.484;2023-05-10T02:46:47;1.75;;;1.20;;
8958;SDS011;4514;49.476;8.484;2023-05-10T02:49:15;1.30;;;1.20;;
8958;SDS011;4514;49.476;8.484;2023-05-10T02:51:50;1.85;;;1.50;;
8958;SDS011;4514;49.476;8.484;2023-05-10T02:54:20;3.80;;;1.50;;
8958;SDS011;4514;49.476;8.484;2023-05-10T02:57:00;1.70;;;1.60;;
8958;SDS011;4514;49.476;8.484;2023-05-10T02:59:26;2.88;;;1.50;;
8958;SDS011;4514;49.476;8.484;2023-05-10T03:01:52;1.60;;;1.48;;
8958;SDS011;4514;49.476;8.484;2023-05-10T03:04:17;1.88;;;1.50;;
8958;SDS011;4514;49.476;8.484;2023-05-10T03:06:45;1.30;;;1.30;;
8958;SDS011;4514;49.476;8.484;2023-05-10T03:09:13;1.52;;;1.42;;
8958;SDS011;4514;49.476;8.484;2023-05-10T03:17:00;2.00;;;1.90;;
8958;SDS011;4514;49.476;8.484;2023-05-10T03:19:40;2.40;;;2.20;;
8958;SDS011;4514;49.476;8.484;2023-05-10T03:22:11;3.47;;;2.50;;
8958;SDS011;4514;49.476;8.484;2023-05-10T03:24:38;3.67;;;2.50;;
8958;SDS011;4514;49.476;8.484;2023-05-10T03:27:04;2.95;;;2.38;;
8958;SDS011;4514;49.476;8.484;2023-05-10T03:29:33;2.65;;;2.45;;
8958;SDS011;4514;49.476;8.484;2023-05-10T03:31:58;5.22;;;2.80;;
8958;SDS011;4514;49.476;8.484;2023-05-10T03:34:24;4.55;;;2.45;;
8958;SDS011;4514;49.476;8.484;2023-05-10T03:36:50;2.58;;;2.30;;
8958;SDS011;4514;49.476;8.484;2023-05-10T03:39:18;2.70;;;2.50;;
8958;SDS011;4514;49.476;8.484;2023-05-10T03:41:43;3.80;;;2.17;;
8958;SDS011;4514;49.476;8.484;2023-05-10T03:44:08;2.50;;;2.13;;
8958;SDS011;4514;49.476;8.484;2023-05-10T03:46:34;3.25;;;2.30;;
8958;SDS011;4514;49.476;8.484;2023-05-10T03:48:59;2.53;;;2.30;;
8958;SDS011;4514;49.476;8.484;2023-05-10T03:51:27;2.75;;;2.30;;
8958;SDS011;4514;49.476;8.484;2023-05-10T03:53:53;4.70;;;2.85;;
8958;SDS011;4514;49.476;8.484;2023-05-10T03:56:24;3.25;;;2.80;;
8958;SDS011;4514;49.476;8.484;2023-05-10T03:58:52;6.97;;;2.92;;
8958;SDS011;4514;49.476;8.484;2023-05-10T04:01:17;5.55;;;3.30;;
8958;SDS011;4514;49.476;8.484;2023-05-10T04:03:47;5.28;;;2.78;;
8958;SDS011;4514;49.476;8.484;2023-05-10T04:06:13;2.78;;;2.58;;
8958;SDS011;4514;49.476;8.484;2023-05-10T04:08:38;2.75;;;2.50;;
8958;SDS011;4514;49.476;8.484;2023-05-10T04:11:10;3.08;;;2.78;;
8958;SDS011;4514;49.476;8.484;2023-05-10T04:13:39;3.17;;;2.50;;
8958;SDS011;4514;49.476;8.484;2023-05-10T04:16:04;2.40;;;2.20;;
8958;SDS011;4514;49.476;8.484;2023-05-10T04:18:30;2.88;;;2.22;;
8958;SDS011;4514;49.476;8.484;2023-05-10T04:20:56;2.35;;;2.15;;
8958;SDS011;4514;49.476;8.484;2023-05-10T04:23:26;4.13;;;2.30;;
8958;SDS011;4514;49.476;8.484;2023-05-10T04:25:52;2.63;;;2.42;;
8958;SDS011;4514;49.476;8.484;2023-05-10T04:28:17;2.67;;;2.42;;
8958;SDS011;4514;49.476;8.484;2023-05-10T04:30:43;3.10;;;1.95;;
8958;SDS011;4514;49.476;8.484;2023-05-10T04:33:11;2.17;;;2.00;;
8958;SDS011;4514;49.476;8.484;2023-05-10T04:35:38;2.67;;;1.90;;
8958;SDS011;4514;49.476;8.484;2023-05-10T04:38:07;2.92;;;2.63;;
8958;SDS011;4514;49.476;8.484;2023-05-10T04:40:35;3.90;;;2.13;;
8958;SDS011;4514;49.476;8.484;2023-05-10T04:43:02;3.20;;;2.08;;
8958;SDS011;4514;49.476;8.484;2023-05-10T04:45:30;2.85;;;2.17;;
8958;SDS011;4514;49.476;8.484;2023-05-10T04:47:57;2.28;;;2.03;;
8958;SDS011;4514;49.476;8.484;2023-05-10T04:50:23;2.65;;;2.00;;
8958;SDS011;4514;49.476;8.484;2023-05-10T04:52:48;2.65;;;2.03;;
8958;SDS011;4514;49.476;8.484;2023-05-10T04:55:13;5.18;;;2.20;;
8958;SDS011;4514;49.476;8.484;2023-05-10T04:57:39;1.80;;;1.70;;
8958;SDS011;4514;49.476;8.484;2023-05-10T05:00:04;2.10;;;2.00;;
8958;SDS011;4514;49.476;8.484;2023-05-10T05:02:32;2.40;;;2.20;;
8958;SDS011;4514;49.476;8.484;2023-05-10T05:04:58;2.17;;;2.08;;
8958;SDS011;4514;49.476;8.484;2023-05-10T05:07:25;2.08;;;1.98;;
8958;SDS011;4514;49.476;8.484;2023-05-10T05:09:51;2.67;;;2.00;;
8958;SDS011;4514;49.476;8.484;2023-05-10T05:12:18;3.33;;;2.00;;
8958;SDS011;4514;49.476;8.484;2023-05-10T05:14:46;2.45;;;2.08;;
8958;SDS011;4514;49.476;8.484;2023-05-10T05:17:12;4.43;;;2.42;;
8958;SDS011;4514;49.476;8.484;2023-05-10T05:19:37;3.07;;;2.27;;
8958;SDS011;4514;49.476;8.484;2023-05-10T05:22:06;5.05;;;2.20;;
8958;SDS011;4514;49.476;8.484;2023-05-10T05:24:37;2.70;;;2.50;;
8958;SDS011;4514;49.476;8.484;2023-05-10T05:27:05;2.50;;;2.35;;
8958;SDS011;4514;49.476;8.484;2023-05-10T05:29:31;3.50;;;2.67;;
8958;SDS011;4514;49.476;8.484;2023-05-10T05:31:56;3.05;;;2.70;;
8958;SDS011;4514;49.476;8.484;2023-05-10T05:34:24;4.03;;;2.30;;
8958;SDS011;4514;49.476;8.484;2023-05-10T05:36:52;2.45;;;2.28;;
8958;SDS011;4514;49.476;8.484;2023-05-10T05:39:22;3.95;;;2.58;;
8958;SDS011;4514;49.476;8.484;2023-05-10T05:41:47;2.93;;;2.73;;
8958;SDS011;4514;49.476;8.484;2023-05-10T05:44:13;2.80;;;2.60;;
8958;SDS011;4514;49.476;8.484;2023-05-10T05:46:40;3.75;;;2.83;;
8958;SDS011;4514;49.476;8.484;2023-05-10T05:49:08;2.95;;;2.75;;
8958;SDS011;4514;49.476;8.484;2023-05-10T05:51:34;3.70;;;2.50;;
8958;SDS011;4514;49.476;8.484;2023-05-10T05:54:00;2.90;;;2.60;;
8958;SDS011;4514;49.476;8.484;2023-05-10T05:56:29;4.05;;;2.70;;
8958;SDS011;4514;49.476;8.484;2023-05-10T05:58:54;3.03;;;2.83;;
8958;SDS011;4514;49.476;8.484;2023-05-10T06:01:22;3.00;;;2.80;;
8958;SDS011;4514;49.476;8.484;2023-05-10T06:03:47;3.45;;;2.70;;
8958;SDS011;4514;49.476;8.484;2023-05-10T06:06:13;3.05;;;2.65;;
8958;SDS011;4514;49.476;8.484;2023-05-10T06:08:40;3.45;;;3.05;;
8958;SDS011;4514;49.476;8.484;2023-05-10T06:11:11;3.45;;;3.15;;
8958;SDS011;4514;49.476;8.484;2023-05-10T06:13:38;3.40;;;2.80;;
8958;SDS011;4514;49.476;8.484;2023-05-10T06:16:07;2.88;;;2.67;;
8958;SDS011;4514;49.476;8.484;2023-05-10T06:18:37;6.13;;;4.15;;
8958;SDS011;4514;49.476;8.484;2023-05-10T06:21:05;4.13;;;3.15;;
8958;SDS011;4514;49.476;8.484;2023-05-10T06:23:30;3.22;;;3.03;;
8958;SDS011;4514;49.476;8.484;2023-05-10T06:25:56;3.38;;;3.00;;
8958;SDS011;4514;49.476;8.484;2023-05-10T06:28:23;3.30;;;3.10;;
8958;SDS011;4514;49.476;8.484;2023-05-10T06:30:49;4.80;;;3.58;;
8958;SDS011;4514;49.476;8.484;2023-05-10T06:33:14;4.95;;;3.47;;
8958;SDS011;4514;49.476;8.484;2023-05-10T06:35:41;3.95;;;3.22;;
8958;SDS011;4514;49.476;8.484;2023-05-10T06:38:08;4.28;;;3.00;;
8958;SDS011;4514;49.476;8.484;2023-05-10T06:40:34;3.50;;;2.97;;
8958;SDS011;4514;49.476;8.484;2023-05-10T06:42:59;3.97;;;3.05;;
8958;SDS011;4514;49.476;8.484;2023-05-10T06:45:24;3.92;;;3.05;;
8958;SDS011;4514;49.476;8.484;2023-05-10T06:47:52;4.32;;;3.30;;
8958;SDS011;4514;49.476;8.484;2023-05-10T06:50:17;4.18;;;3.40;;
8958;SDS011;4514;49.476;8.484;2023-05-10T06:52:43;3.10;;;2.90;;
8958;SDS011;4514;49.476;8.484;2023-05-10T06:55:08;3.08;;;2.88;;
8958;SDS011;4514;49.476;8.484;2023-05-10T06:57:38;4.05;;;3.15;;
8958;SDS011;4514;49.476;8.484;2023-05-10T07:00:04;3.42;;;3.13;;
8958;SDS011;4514;49.476;8.484;2023-05-10T07:02:36;3.28;;;2.97;;
8958;SDS011;4514;49.476;8.484;2023-05-10T07:05:02;4.20;;;2.97;;
8958;SDS011;4514;49.476;8.484;2023-05-10T07:07:27;3.20;;;2.90;;
8958;SDS011;4514;49.476;8.484;2023-05-10T07:09:53;3.50;;;2.83;;
8958;SDS011;4514;49.476;8.484;2023-05-10T07:12:24;4.05;;;3.28;;
8958;SDS011;4514;49.476;8.484;2023-05-10T07:14:50;3.30;;;3.00;;
8958;SDS011;4514;49.476;8.484;2023-05-10T07:17:15;3.50;;;3.20;;
8958;SDS011;4514;49.476;8.484;2023-05-10T07:19:41;3.22;;;3.00;;
8958;SDS011;4514;49.476;8.484;2023-05-10T07:22:06;3.35;;;2.85;;
8958;SDS011;4514;49.476;8.484;2023-05-10T07:24:34;3.60;;;2.80;;
8958;SDS011;4514;49.476;8.484;2023-05-10T07:26:59;2.78;;;2.55;;
8958;SDS011;4514;49.476;8.484;2023-05-10T07:29:27;2.15;;;2.03;;
8958;SDS011;4514;49.476;8.484;2023-05-10T07:31:53;3.08;;;2.25;;
8958;SDS011;4514;49.476;8.484;2023-05-10T07:34:21;3.22;;;2.50;;
8958;SDS011;4514;49.476;8.484;2023-05-10T07:36:51;3.13;;;2.10;;
8958;SDS011;4514;49.476;8.484;2023-05-10T07:39:19;2.85;;;2.30;;
8958;SDS011;4514;49.476;8.484;2023-05-10T07:41:50;4.72;;;2.45;;
8958;SDS011;4514;49.476;8.484;2023-05-10T07:44:22;2.58;;;2.30;;
8958;SDS011;4514;49.476;8.484;2023-05-10T07:46:50;2.83;;;2.40;;
8958;SDS011;4514;49.476;8.484;2023-05-10T07:49:21;2.75;;;2.15;;
8958;SDS011;4514;49.476;8.484;2023-05-10T07:51:50;2.20;;;2.00;;
8958;SDS011;4514;49.476;8.484;2023-05-10T07:54:17;4.30;;;3.40;;
8958;SDS011;4514;49.476;8.484;2023-05-10T07:56:43;3.30;;;3.10;;
8958;SDS011;4514;49.476;8.484;2023-05-10T07:59:15;2.67;;;2.03;;
8958;SDS011;4514;49.476;8.484;2023-05-10T08:01:42;3.13;;;2.70;;
8958;SDS011;4514;49.476;8.484;2023-05-10T08:04:09;2.58;;;2.00;;
8958;SDS011;4514;49.476;8.484;2023-05-10T08:06:35;1.85;;;1.63;;
8958;SDS011;4514;49.476;8.484;2023-05-10T08:09:00;2.05;;;1.92;;
8958;SDS011;4514;49.476;8.484;2023-05-10T08:11:26;2.83;;;1.83;;
8958;SDS011;4514;49.476;8.484;2023-05-10T08:13:53;2.72;;;2.00;;
8958;SDS011;4514;49.476;8.484;2023-05-10T08:16:19;2.33;;;1.75;;
8958;SDS011;4514;49.476;8.484;2023-05-10T08:18:47;1.98;;;1.88;;
8958;SDS011;4514;49.476;8.484;2023-05-10T08:21:14;2.85;;;2.00;;
8958;SDS011;4514;49.476;8.484;2023-05-10T08:23:42;3.38;;;2.00;;
8958;SDS011;4514;49.476;8.484;2023-05-10T08:26:11;3.28;;;2.20;;
8958;SDS011;4514;49.476;8.484;2023-05-10T08:28:36;3.72;;;1.83;;
8958;SDS011;4514;49.476;8.484;2023-05-10T08:31:04;3.08;;;1.90;;
8958;SDS011;4514;49.476;8.484;2023-05-10T08:33:29;2.50;;;2.00;;
8958;SDS011;4514;49.476;8.484;2023-05-10T08:35:55;2.42;;;2.20;;
8958;SDS011;4514;49.476;8.484;2023-05-10T08:38:20;2.03;;;1.90;;
8958;SDS011;4514;49.476;8.484;2023-05-10T08:40:48;2.10;;;2.00;;
8958;SDS011;4514;49.476;8.484;2023-05-10T08:43:15;2.85;;;1.63;;
8958;SDS011;4514;49.476;8.484;2023-05-10T08:45:44;2.00;;;1.50;;
8958;SDS011;4514;49.476;8.484;2023-05-10T08:48:13;1.13;;;1.00;;
8958;SDS011;4514;49.476;8.484;2023-05-10T08:50:41;1.40;;;1.20;;
8958;SDS011;4514;49.476;8.484;2023-05-10T08:53:10;1.80;;;1.40;;
8958;SDS011;4514;49.476;8.484;2023-05-10T08:55:37;3.38;;;1.45;;
8958;SDS011;4514;49.476;8.484;2023-05-10T08:58:04;2.58;;;1.60;;
8958;SDS011;4514;49.476;8.484;2023-05-10T09:00:29;1.65;;;1.55;;
8958;SDS011;4514;49.476;8.484;2023-05-10T09:02:55;1.60;;;1.50;;
8958;SDS011;4514;49.476;8.484;2023-05-10T09:05:25;2.03;;;1.83;;
8958;SDS011;4514;49.476;8.484;2023-05-10T09:07:50;1.40;;;1.30;;
8958;SDS011;4514;49.476;8.484;2023-05-10T09:10:16;2.58;;;1.42;;
8958;SDS011;4514;49.476;8.484;2023-05-10T09:12:42;3.13;;;1.70;;
8958;SDS011;4514;49.476;8.484;2023-05-10T09:15:10;2.05;;;1.63;;
8958;SDS011;4514;49.476;8.484;2023-05-10T09:17:39;2.90;;;1.70;;
8958;SDS011;4514;49.476;8.484;2023-05-10T09:20:07;3.58;;;2.75;;
8958;SDS011;4514;49.476;8.484;2023-05-10T09:22:33;2.33;;;1.90;;
8958;SDS011;4514;49.476;8.484;2023-05-10T09:27:36;2.45;;;1.80;;
8958;SDS011;4514;49.476;8.484;2023-05-10T09:30:02;1.88;;;1.75;;
8958;SDS011;4514;49.476;8.484;2023-05-10T09:32:39;2.60;;;2.40;;
8958;SDS011;4514;49.476;8.484;2023-05-10T09:35:09;1.60;;;1.50;;
8958;SDS011;4514;49.476;8.484;2023-05-10T09:37:45;2.53;;;2.00;;
8958;SDS011;4514;49.476;8.484;2023-05-10T09:40:13;2.15;;;1.95;;
8958;SDS011;4514;49.476;8.484;2023-05-10T09:42:40;1.75;;;1.60;;
8958;SDS011;4514;49.476;8.484;2023-05-10T09:45:16;1.50;;;1.40;;
8958;SDS011;4514;49.476;8.484;2023-05-10T09:47:41;3.70;;;1.33;;
8958;SDS011;4514;49.476;8.484;2023-05-10T09:50:06;2.03;;;1.50;;
8958;SDS011;4514;49.476;8.484;2023-05-10T09:55:18;2.22;;;1.50;;
8958;SDS011;4514;49.476;8.484;2023-05-10T09:57:48;2.85;;;1.20;;
8958;SDS011;4514;49.476;8.484;2023-05-10T10:00:17;1.52;;;1.20;;
8958;SDS011;4514;49.476;8.484;2023-05-10T10:02:44;3.25;;;1.25;;
8958;SDS011;4514;49.476;8.484;2023-05-10T10:05:11;1.58;;;1.45;;
8958;SDS011;4514;49.476;8.484;2023-05-10T10:07:39;1.17;;;1.08;;
8958;SDS011;4514;49.476;8.484;2023-05-10T10:10:07;1.15;;;1.05;;
8958;SDS011;4514;49.476;8.484;2023-05-10T10:12:36;3.58;;;1.05;;
8958;SDS011;4514;49.476;8.484;2023-05-10T10:15:02;1.45;;;1.10;;
8958;SDS011;4514;49.476;8.484;2023-05-10T10:17:27;1.45;;;1.00;;
8958;SDS011;4514;49.476;8.484;2023-05-10T10:19:55;1.30;;;1.20;;
8958;SDS011;4514;49.476;8.484;2023-05-10T10:22:24;2.90;;;1.35;;
8958;SDS011;4514;49.476;8.484;2023-05-10T10:24:50;1.55;;;1.27;;
8958;SDS011;4514;49.476;8.484;2023-05-10T10:27:25;1.50;;;1.40;;
8958;SDS011;4514;49.476;8.484;2023-05-10T10:35:33;1.83;;;1.63;;
8958;SDS011;4514;49.476;8.484;2023-05-10T10:37:59;3.28;;;1.40;;
8958;SDS011;4514;49.476;8.484;2023-05-10T10:40:32;2.50;;;1.50;;
8958;SDS011;4514;49.476;8.484;2023-05-10T10:42:58;1.42;;;1.30;;
8958;SDS011;4514;49.476;8.484;2023-05-10T10:46:25;2.58;;;1.40;;
8958;SDS011;4514;49.476;8.484;2023-05-10T10:48:48;1.88;;;1.50;;
8958;SDS011;4514;49.476;8.484;2023-05-10T10:51:16;1.60;;;1.40;;
8958;SDS011;4514;49.476;8.484;2023-05-10T10:53:41;3.35;;;1.50;;
8958;SDS011;4514;49.476;8.484;2023-05-10T10:56:13;1.40;;;1.30;;
8958;SDS011;4514;49.476;8.484;2023-05-10T10:58:48;2.60;;;1.90;;
8958;SDS011;4514;49.476;8.484;2023-05-10T11:01:16;2.72;;;1.67;;
8958;SDS011;4514;49.476;8.484;2023-05-10T11:06:33;3.30;;;1.30;;
8958;SDS011;4514;49.476;8.484;2023-05-10T11:09:05;1.42;;;1.17;;
8958;SDS011;4514;49.476;8.484;2023-05-10T11:11:38;1.98;;;1.45;;
8958;SDS011;4514;49.476;8.484;2023-05-10T11:14:13;2.30;;;1.45;;
8958;SDS011;4514;49.476;8.484;2023-05-10T11:16:42;1.23;;;1.17;;
8958;SDS011;4514;49.476;8.484;2023-05-10T11:19:12;1.30;;;1.20;;
8958;SDS011;4514;49.476;8.484;2023-05-10T11:21:45;2.35;;;1.00;;
8958;SDS011;4514;49.476;8.484;2023-05-10T11:24:15;0.90;;;0.90;;
8958;SDS011;4514;49.476;8.484;2023-05-10T11:26:43;1.63;;;1.10;;
8958;SDS011;4514;49.476;8.484;2023-05-10T11:29:08;2.45;;;1.00;;
8958;SDS011;4514;49.476;8.484;2023-05-10T11:31:41;1.08;;;0.90;;
8958;SDS011;4514;49.476;8.484;2023-05-10T11:34:10;1.55;;;1.20;;
8958;SDS011;4514;49.476;8.484;2023-05-10T11:36:41;0.82;;;0.82;;
8958;SDS011;4514;49.476;8.484;2023-05-10T11:39:09;2.08;;;1.08;;
8958;SDS011;4514;49.476;8.484;2023-05-10T11:41:39;1.52;;;0.95;;
8958;SDS011;4514;49.476;8.484;2023-05-10T11:44:08;1.17;;;1.08;;
8958;SDS011;4514;49.476;8.484;2023-05-10T11:46:37;1.85;;;1.30;;
8958;SDS011;4514;49.476;8.484;2023-05-10T11:49:07;1.45;;;1.10;;
8958;SDS011;4514;49.476;8.484;2023-05-10T11:51:35;2.55;;;1.10;;
8958;SDS011;4514;49.476;8.484;2023-05-10T11:54:10;0.80;;;0.80;;
8958;SDS011;4514;49.476;8.484;2023-05-10T11:56:36;2.65;;;1.00;;
8958;SDS011;4514;49.476;8.484;2023-05-10T11:59:02;1.40;;;1.00;;
8958;SDS011;4514;49.476;8.484;2023-05-10T12:01:28;2.35;;;1.02;;
8958;SDS011;4514;49.476;8.484;2023-05-10T12:03:54;2.10;;;1.55;;
8958;SDS011;4514;49.476;8.484;2023-05-10T12:06:25;1.95;;;1.30;;
8958;SDS011;4514;49.476;8.484;2023-05-10T12:08:52;1.65;;;1.00;;
8958;SDS011;4514;49.476;8.484;2023-05-10T12:11:20;2.05;;;0.90;;
8958;SDS011;4514;49.476;8.484;2023-05-10T12:13:49;1.67;;;0.93;;
8958;SDS011;4514;49.476;8.484;2023-05-10T12:16:19;1.45;;;1.00;;
8958;SDS011;4514;49.476;8.484;2023-05-10T12:18:53;1.58;;;1.00;;
8958;SDS011;4514;49.476;8.484;2023-05-10T12:21:20;3.00;;;1.15;;
8958;SDS011;4514;49.476;8.484;2023-05-10T12:23:49;4.35;;;1.08;;
8958;SDS011;4514;49.476;8.484;2023-05-10T12:26:15;1.50;;;1.20;;
8958;SDS011;4514;49.476;8.484;2023-05-10T12:28:46;2.28;;;1.00;;
8958;SDS011;4514;49.476;8.484;2023-05-10T12:31:13;1.27;;;1.17;;
8958;SDS011;4514;49.476;8.484;2023-05-10T12:33:40;3.20;;;1.35;;
8958;SDS011;4514;49.476;8.484;2023-05-10T12:36:12;1.52;;;1.20;;
8958;SDS011;4514;49.476;8.484;2023-05-10T12:38:39;3.28;;;1.00;;
8958;SDS011;4514;49.476;8.484;2023-05-10T12:41:11;1.98;;;1.00;;
8958;SDS011;4514;49.476;8.484;2023-05-10T12:43:41;1.98;;;1.10;;
8958;SDS011;4514;49.476;8.484;2023-05-10T12:46:09;1.40;;;1.08;;
8958;SDS011;4514;49.476;8.484;2023-05-10T12:48:36;3.10;;;1.00;;
8958;SDS011;4514;49.476;8.484;2023-05-10T12:51:03;2.90;;;1.30;;
8958;SDS011;4514;49.476;8.484;2023-05-10T12:53:29;2.00;;;1.25;;
8958;SDS011;4514;49.476;8.484;2023-05-10T12:55:54;1.20;;;1.10;;
8958;SDS011;4514;49.476;8.484;2023-05-10T12:58:20;1.65;;;1.30;;
8958;SDS011;4514;49.476;8.484;2023-05-10T13:00:48;1.55;;;1.35;;
8958;SDS011;4514;49.476;8.484;2023-05-10T13:03:16;2.42;;;1.70;;
8958;SDS011;4514;49.476;8.484;2023-05-10T13:05:42;5.10;;;1.33;;
8958;SDS011;4514;49.476;8.484;2023-05-10T13:08:07;2.88;;;1.30;;
8958;SDS011;4514;49.476;8.484;2023-05-10T13:10:35;3.55;;;1.10;;
8958;SDS011;4514;49.476;8.484;2023-05-10T13:13:00;3.95;;;1.10;;
8958;SDS011;4514;49.476;8.484;2023-05-10T13:15:28;2.20;;;1.17;;
8958;SDS011;4514;49.476;8.484;2023-05-10T13:17:53;3.50;;;1.15;;
8958;SDS011;4514;49.476;8.484;2023-05-10T13:20:20;3.40;;;1.40;;
8958;SDS011;4514;49.476;8.484;2023-05-10T13:22:50;2.10;;;1.00;;
8958;SDS011;4514;49.476;8.484;2023-05-10T13:25:17;2.63;;;1.40;;
8958;SDS011;4514;49.476;8.484;2023-05-10T13:27:45;3.97;;;1.17;;
8958;SDS011;4514;49.476;8.484;2023-05-10T13:30:13;1.95;;;1.10;;
8958;SDS011;4514;49.476;8.484;2023-05-10T13:32:38;2.75;;;1.15;;
8958;SDS011;4514;49.476;8.484;2023-05-10T13:35:04;2.22;;;0.90;;
8958;SDS011;4514;49.476;8.484;2023-05-10T13:37:30;2.55;;;1.00;;
8958;SDS011;4514;49.476;8.484;2023-05-10T13:39:56;2.42;;;1.00;;
8958;SDS011;4514;49.476;8.484;2023-05-10T13:42:23;1.63;;;1.20;;
8958;SDS011;4514;49.476;8.484;2023-05-10T13:44:52;2.72;;;0.88;;
8958;SDS011;4514;49.476;8.484;2023-05-10T13:47:19;2.38;;;0.90;;
8958;SDS011;4514;49.476;8.484;2023-05-10T13:49:49;1.48;;;0.90;;
8958;SDS011;4514;49.476;8.484;2023-05-10T13:52:15;2.42;;;0.90;;
8958;SDS011;4514;49.476;8.484;2023-05-10T13:54:40;2.33;;;1.10;;
8958;SDS011;4514;49.476;8.484;2023-05-10T13:57:08;1.08;;;0.90;;
8958;SDS011;4514;49.476;8.484;2023-05-10T13:59:34;2.05;;;1.20;;
8958;SDS011;4514;49.476;8.484;2023-05-10T14:01:59;1.10;;;0.90;;
8958;SDS011;4514;49.476;8.484;2023-05-10T14:04:27;2.97;;;0.90;;
8958;SDS011;4514;49.476;8.484;2023-05-10T14:06:57;2.47;;;1.13;;
8958;SDS011;4514;49.476;8.484;2023-05-10T14:09:25;3.17;;;0.90;;
8958;SDS011;4514;49.476;8.484;2023-05-10T14:11:50;0.80;;;0.77;;
8958;SDS011;4514;49.476;8.484;2023-05-10T14:14:16;2.40;;;0.80;;
8958;SDS011;4514;49.476;8.484;2023-05-10T14:16:45;0.60;;;0.60;;
8958;SDS011;4514;49.476;8.484;2023-05-10T14:19:12;1.20;;;0.80;;
8958;SDS011;4514;49.476;8.484;2023-05-10T14:21:40;5.80;;;0.80;;
8958;SDS011;4514;49.476;8.484;2023-05-10T14:24:06;0.98;;;0.80;;
8958;SDS011;4514;49.476;8.484;2023-05-10T14:26:32;3.30;;;0.95;;
8958;SDS011;4514;49.476;8.484;2023-05-10T14:28:58;1.75;;;0.80;;
8958;SDS011;4514;49.476;8.484;2023-05-10T14:31:23;2.72;;;0.93;;
8958;SDS011;4514;49.476;8.484;2023-05-10T14:33:52;2.05;;;0.80;;
8958;SDS011;4514;49.476;8.484;2023-05-10T14:36:23;2.33;;;1.30;;
8958;SDS011;4514;49.476;8.484;2023-05-10T14:38:50;3.42;;;1.30;;
8958;SDS011;4514;49.476;8.484;2023-05-10T14:41:17;1.65;;;1.00;;
8958;SDS011;4514;49.476;8.484;2023-05-10T14:43:44;2.10;;;1.30;;
8958;SDS011;4514;49.476;8.484;2023-05-10T14:46:10;2.00;;;0.75;;
8958;SDS011;4514;49.476;8.484;2023-05-10T14:48:38;3.60;;;0.98;;
8958;SDS011;4514;49.476;8.484;2023-05-10T14:51:03;1.73;;;0.90;;
8958;SDS011;4514;49.476;8.484;2023-05-10T14:53:34;3.50;;;0.90;;
8958;SDS011;4514;49.476;8.484;2023-05-10T14:55:59;2.95;;;1.90;;
8958;SDS011;4514;49.476;8.484;2023-05-10T14:58:27;1.70;;;0.85;;
8958;SDS011;4514;49.476;8.484;2023-05-10T15:00:55;4.28;;;1.40;;
8958;SDS011;4514;49.476;8.484;2023-05-10T15:03:21;2.17;;;1.70;;
8958;SDS011;4514;49.476;8.484;2023-05-10T15:05:47;1.10;;;1.00;;
8958;SDS011;4514;49.476;8.484;2023-05-10T15:08:12;1.15;;;1.05;;
8958;SDS011;4514;49.476;8.484;2023-05-10T15:10:38;2.58;;;0.80;;
8958;SDS011;4514;49.476;8.484;2023-05-10T15:13:04;3.03;;;1.00;;
8958;SDS011;4514;49.476;8.484;2023-05-10T15:15:31;2.08;;;1.00;;
8958;SDS011;4514;49.476;8.484;2023-05-10T15:17:57;3.13;;;1.20;;
8958;SDS011;4514;49.476;8.484;2023-05-10T15:20:22;2.65;;;0.93;;
8958;SDS011;4514;49.476;8.484;2023-05-10T15:22:47;0.77;;;0.73;;
8958;SDS011;4514;49.476;8.484;2023-05-10T15:25:13;1.10;;;1.00;;
8958;SDS011;4514;49.476;8.484;2023-05-10T15:27:43;1.88;;;0.85;;
8958;SDS011;4514;49.476;8.484;2023-05-10T15:30:11;1.73;;;1.20;;
8958;SDS011;4514;49.476;8.484;2023-05-10T15:32:37;2.90;;;1.45;;
8958;SDS011;4514;49.476;8.484;2023-05-10T15:35:04;2.03;;;1.10;;
8958;SDS011;4514;49.476;8.484;2023-05-10T15:37:30;2.58;;;0.90;;
8958;SDS011;4514;49.476;8.484;2023-05-10T15:40:02;0.88;;;0.80;;
8958;SDS011;4514;49.476;8.484;2023-05-10T15:42:29;1.95;;;0.70;;
8958;SDS011;4514;49.476;8.484;2023-05-10T15:44:55;1.05;;;0.77;;
8958;SDS011;4514;49.476;8.484;2023-05-10T15:47:23;1.15;;;0.80;;
8958;SDS011;4514;49.476;8.484;2023-05-10T15:49:49;1.95;;;1.40;;
8958;SDS011;4514;49.476;8.484;2023-05-10T15:52:14;2.08;;;1.10;;
8958;SDS011;4514;49.476;8.484;2023-05-10T15:54:40;1.38;;;0.90;;